Time;durP1;ratioP1;P1;durP2;ratioP2;P2;SDS_P1;SDS_P2;PMS_P1;PMS_P2;Temp;Humidity;BMP_temperature;BMP_pressure;BME280_temperature;BME280_humidity;BME280_pressure;Samples;Min_cycle;Max_cycle;Signal;HPM_P1;HPM_P2
2022/09/08 00:00:19;;;;;;;6.72;4.53;;;;;;;16.15;59.63;95149.28;5113016;27;20028;-78
2022/09/08 00:02:45;;;;;;;5.43;4.47;;;;;;;16.18;59.72;95150.78;5129945;27;20023;-78
2022/09/08 00:05:12;;;;;;;4.78;4.38;;;;;;;16.13;59.75;95142.53;5133114;27;20031;-78
2022/09/08 00:07:38;;;;;;;4.90;4.35;;;;;;;16.00;59.76;95138.53;5116095;27;20076;-78
2022/09/08 00:10:03;;;;;;;5.75;4.63;;;;;;;16.06;59.75;95156.25;5131485;27;20446;-78
2022/09/08 00:12:29;;;;;;;5.10;4.32;;;;;;;16.09;59.83;95149.91;5131444;27;20751;-77
2022/09/08 00:14:55;;;;;;;10.10;4.63;;;;;;;16.04;59.84;95152.97;5114559;27;20492;-77
2022/09/08 00:17:21;;;;;;;7.18;4.50;;;;;;;16.04;59.77;95150.34;5114434;27;20404;-78
2022/09/08 00:19:47;;;;;;;6.28;4.40;;;;;;;16.01;59.57;95149.84;5114413;27;20480;-77
2022/09/08 00:22:12;;;;;;;6.80;4.40;;;;;;;16.01;59.86;95158.50;5097247;27;20031;-77
2022/09/08 00:24:57;;;;;;;5.63;4.40;;;;;;;15.97;60.01;95162.41;5098832;27;20023;-77
2022/09/08 00:34:06;;;;;;;5.13;4.57;;;;;;;15.72;60.74;95145.69;5134207;27;20482;-78
2022/09/08 00:36:31;;;;;;;5.65;4.70;;;;;;;15.73;60.80;95149.94;5116132;27;20031;-78
2022/09/08 00:38:58;;;;;;;5.50;4.55;;;;;;;15.69;60.58;95143.38;5115760;27;20413;-77
2022/09/08 00:41:24;;;;;;;6.38;5.50;;;;;;;15.74;60.54;95158.59;5116221;27;20088;-77
2022/09/08 00:43:58;;;;;;;6.35;4.82;;;;;;;15.71;60.73;95151.06;5134122;27;20501;-77
2022/09/08 00:46:43;;;;;;;5.25;4.40;;;;;;;15.72;60.90;95152.72;5133124;27;20035;-77
2022/09/08 00:49:16;;;;;;;4.97;4.40;;;;;;;15.66;61.03;95141.00;5133581;27;20039;-77
2022/09/08 00:51:43;;;;;;;4.97;4.30;;;;;;;15.67;60.99;95149.69;5099644;27;20183;-77
2022/09/08 00:54:09;;;;;;;5.22;4.72;;;;;;;15.59;61.17;95146.00;5132727;27;20027;-77
2022/09/08 00:56:35;;;;;;;5.10;4.60;;;;;;;15.57;61.24;95142.75;5115488;27;20034;-77
2022/09/08 00:59:01;;;;;;;5.68;4.55;;;;;;;15.61;60.87;95144.06;5115555;27;20512;-77
2022/09/08 01:01:26;;;;;;;4.82;4.32;;;;;;;15.55;61.01;95143.84;5098639;27;20039;-78
2022/09/08 01:03:52;;;;;;;5.68;4.40;;;;;;;15.45;60.91;95133.44;5132486;27;20057;-78
2022/09/08 01:12:44;;;;;;;5.30;4.53;;;;;;;15.54;60.47;95148.25;5132652;27;20046;-78
2022/09/08 01:15:18;;;;;;;4.95;4.35;;;;;;;15.53;60.53;95145.78;5115599;27;20031;-77
2022/09/08 01:17:44;;;;;;;5.13;4.63;;;;;;;15.59;60.30;95148.63;5115741;27;20114;-78
2022/09/08 01:20:10;;;;;;;4.85;4.38;;;;;;;15.59;60.61;95151.25;5132333;27;20024;-77
2022/09/08 01:22:39;;;;;;;4.97;4.47;;;;;;;15.59;60.83;95146.00;5114995;27;20495;-78
2022/09/08 01:25:28;;;;;;;5.80;4.57;;;;;;;15.51;61.49;95148.56;5133412;27;20039;-78
2022/09/08 01:28:12;;;;;;;5.70;4.50;;;;;;;15.47;61.63;95141.97;5133291;27;20039;-77
2022/09/08 01:30:38;;;;;;;5.20;4.70;;;;;;;15.32;61.98;95128.59;5115167;27;20034;-77
2022/09/08 01:33:05;;;;;;;4.70;4.30;;;;;;;15.37;62.06;95146.44;5114752;27;20090;-77
2022/09/08 01:35:38;;;;;;;7.05;5.00;;;;;;;15.33;62.25;95145.94;5115003;27;20495;-77
2022/09/08 01:38:04;;;;;;;5.65;5.13;;;;;;;15.31;62.30;95149.66;5098433;27;20526;-77
2022/09/08 01:40:29;;;;;;;5.90;5.15;;;;;;;15.24;62.63;95145.97;5133321;27;20059;-77
2022/09/08 01:42:55;;;;;;;5.53;4.93;;;;;;;15.23;62.68;95155.63;5131626;27;20088;-78
2022/09/08 01:45:39;;;;;;;5.53;4.93;;;;;;;15.10;62.95;95145.53;5131909;27;20039;-77
2022/09/08 01:48:05;;;;;;;7.05;5.07;;;;;;;15.10;63.21;95142.91;5131820;27;20020;-78
2022/09/08 01:50:30;;;;;;;5.53;4.88;;;;;;;15.15;63.23;95140.66;5114521;27;20576;-77
2022/09/08 01:52:57;;;;;;;6.75;4.82;;;;;;;15.10;63.11;95142.06;5131445;27;20047;-77
2022/09/08 01:55:22;;;;;;;6.32;4.72;;;;;;;15.15;63.06;95135.41;5114460;27;20034;-77
2022/09/08 01:57:48;;;;;;;7.50;4.90;;;;;;;15.20;62.81;95135.00;5131546;27;20039;-76
2022/09/08 02:00:13;;;;;;;7.38;4.63;;;;;;;15.11;63.00;95147.16;5132249;27;20039;-77
2022/09/08 02:02:39;;;;;;;5.28;4.78;;;;;;;15.14;62.45;95151.28;5131373;27;20499;-77
2022/09/08 02:05:05;;;;;;;6.15;5.00;;;;;;;15.16;62.23;95144.13;5131287;27;20035;-77
2022/09/08 02:07:31;;;;;;;6.50;4.55;;;;;;;15.17;62.33;95133.50;5131451;27;20051;-77
2022/09/08 02:09:57;;;;;;;8.90;4.82;;;;;;;15.20;61.75;95135.00;5114149;27;20035;-78
2022/09/08 02:12:22;;;;;;;5.35;4.50;;;;;;;15.19;61.51;95134.19;5131143;27;20034;-77
2022/09/08 02:14:48;;;;;;;7.45;4.38;;;;;;;15.17;60.88;95115.19;5114007;27;20031;-77
2022/09/08 02:17:13;;;;;;;7.22;4.65;;;;;;;15.13;61.01;95107.78;5131150;27;20554;-78
2022/09/08 02:19:39;;;;;;;4.53;3.95;;;;;;;15.25;60.88;95121.47;5131021;27;20030;-77
2022/09/08 02:22:04;;;;;;;5.82;4.35;;;;;;;15.28;60.35;95123.78;5113908;27;20027;-77
2022/09/08 02:24:29;;;;;;;5.20;4.25;;;;;;;15.30;60.64;95124.47;5113896;27;20031;-77
2022/09/08 02:26:55;;;;;;;5.20;4.70;;;;;;;15.23;61.07;95123.41;5131192;27;20477;-77
2022/09/08 02:29:21;;;;;;;8.23;4.95;;;;;;;15.17;60.99;95115.19;5132122;27;20023;-77
2022/09/08 02:31:47;;;;;;;5.55;4.55;;;;;;;15.19;60.98;95113.25;5131040;27;20027;-77
2022/09/08 02:34:12;;;;;;;5.78;4.28;;;;;;;15.07;61.18;95119.66;5130854;27;20492;-78
2022/09/08 02:36:38;;;;;;;4.55;4.10;;;;;;;15.17;60.90;95133.50;5130935;27;20031;-77
2022/09/08 02:39:03;;;;;;;5.45;4.35;;;;;;;15.17;60.63;95124.81;5096661;27;20054;-78
2022/09/08 02:41:29;;;;;;;6.13;4.70;;;;;;;15.27;60.75;95132.63;5130965;27;20404;-77
2022/09/08 02:43:54;;;;;;;5.75;4.57;;;;;;;15.11;60.67;95110.53;5112656;27;20048;-77
2022/09/08 02:46:20;;;;;;;5.88;4.28;;;;;;;15.25;60.40;95121.47;5132303;27;20405;-77
2022/09/08 02:48:46;;;;;;;4.68;4.18;;;;;;;15.30;60.09;95119.25;5113082;27;20084;-77
2022/09/08 02:51:12;;;;;;;5.30;3.90;;;;;;;15.32;60.17;95122.50;5130726;27;20038;-77
2022/09/08 02:53:38;;;;;;;4.75;3.92;;;;;;;15.30;60.30;95114.81;5131839;27;20038;-77
2022/09/08 02:56:04;;;;;;;6.95;4.32;;;;;;;15.28;60.29;95108.91;5130540;27;20442;-77
2022/09/08 02:58:30;;;;;;;4.72;4.28;;;;;;;15.24;60.61;95114.56;5130825;28;20032;-77
2022/09/08 03:00:55;;;;;;;5.88;4.45;;;;;;;15.23;60.40;95103.28;5130577;28;20397;-77
2022/09/08 03:03:21;;;;;;;6.60;4.57;;;;;;;15.23;60.13;95108.53;5130468;28;20023;-77
2022/09/08 03:05:48;;;;;;;6.22;4.50;;;;;;;15.19;60.19;95112.41;5129841;28;20122;-77
2022/09/08 03:08:14;;;;;;;7.07;4.55;;;;;;;15.24;60.36;95109.34;5129016;28;20058;-77
2022/09/08 03:10:40;;;;;;;4.68;4.03;;;;;;;15.28;60.21;95121.19;5096301;28;20386;-77
2022/09/08 03:13:06;;;;;;;5.15;4.22;;;;;;;15.17;60.79;95123.03;5113229;28;20472;-77
2022/09/08 03:15:31;;;;;;;7.40;4.57;;;;;;;15.04;60.74;95093.78;5131796;27;20023;-77
2022/09/08 03:17:57;;;;;;;4.57;4.10;;;;;;;15.14;60.58;95115.47;5113218;28;20477;-77
2022/09/08 03:20:23;;;;;;;5.32;4.15;;;;;;;15.10;60.47;95119.38;5130518;28;20034;-77
2022/09/08 03:22:49;;;;;;;6.28;4.60;;;;;;;15.10;60.98;95121.97;5113370;28;20062;-77
2022/09/08 03:25:15;;;;;;;5.32;4.25;;;;;;;15.09;60.91;95125.56;5130343;28;20092;-78
2022/09/08 03:27:41;;;;;;;5.10;4.32;;;;;;;14.99;60.76;95111.72;5130543;28;20031;-77
2022/09/08 03:30:07;;;;;;;5.05;4.30;;;;;;;15.02;60.73;95119.28;5096637;28;20544;-77
2022/09/08 03:32:34;;;;;;;4.70;4.20;;;;;;;15.02;60.85;95127.13;5129393;27;20039;-77
2022/09/08 03:35:00;;;;;;;5.32;4.63;;;;;;;14.99;60.85;95127.41;5109022;28;20105;-77
2022/09/08 03:37:25;;;;;;;5.68;4.43;;;;;;;14.93;61.04;95123.59;5109132;28;20039;-77
2022/09/08 03:39:51;;;;;;;7.18;4.47;;;;;;;14.89;61.02;95122.22;5110104;28;20494;-77
2022/09/08 03:42:17;;;;;;;4.70;4.30;;;;;;;14.93;60.93;95131.44;5075040;28;20031;-77
2022/09/08 03:44:43;;;;;;;4.88;4.40;;;;;;;14.92;61.02;95123.72;5093009;28;20047;-77
2022/09/08 03:47:08;;;;;;;4.72;4.28;;;;;;;14.96;60.71;95131.16;5110714;28;20497;-77
2022/09/08 03:49:34;;;;;;;8.57;4.30;;;;;;;14.90;61.08;95128.28;5109523;28;20032;-77
2022/09/08 03:52:01;;;;;;;5.03;4.35;;;;;;;14.79;61.57;95123.25;5111248;28;20032;-78
2022/09/08 03:57:11;;;;;;;5.13;4.38;;;;;;;14.69;62.25;95136.38;5130221;28;20428;-77
2022/09/08 03:59:37;;;;;;;5.10;4.60;;;;;;;14.63;62.81;95143.00;5131282;27;20048;-77
2022/09/08 04:02:02;;;;;;;6.65;4.60;;;;;;;14.64;62.46;95133.38;5133560;27;20054;-77
2022/09/08 04:04:28;;;;;;;5.00;4.50;;;;;;;14.70;62.43;95141.44;5133596;27;20030;-77
2022/09/08 04:06:54;;;;;;;6.20;4.18;;;;;;;14.67;62.52;95139.13;5116751;27;20031;-77
2022/09/08 04:09:19;;;;;;;5.32;4.60;;;;;;;14.68;62.44;95132.94;5116377;27;20050;-78
2022/09/08 04:11:46;;;;;;;5.80;4.75;;;;;;;14.70;62.08;95132.78;5135159;27;20035;-77
2022/09/08 04:14:11;;;;;;;5.15;4.32;;;;;;;14.68;62.01;95127.72;5116547;27;20028;-77
2022/09/08 04:16:37;;;;;;;5.40;4.90;;;;;;;14.76;62.15;95132.19;5121268;27;20031;-77
2022/09/08 04:19:02;;;;;;;5.68;4.38;;;;;;;14.79;62.09;95141.53;5116373;27;20046;-78
2022/09/08 04:21:28;;;;;;;9.15;4.70;;;;;;;14.81;61.99;95145.66;5093840;27;20036;-78
2022/09/08 04:23:53;;;;;;;6.45;4.35;;;;;;;14.82;61.79;95142.09;5125972;27;20035;-78
2022/09/08 04:26:19;;;;;;;5.60;4.35;;;;;;;14.83;61.56;95137.69;5095520;28;20053;-78
2022/09/08 04:28:45;;;;;;;5.05;4.53;;;;;;;14.84;61.43;95136.72;5103916;27;20062;-78
2022/09/08 04:31:11;;;;;;;4.82;4.30;;;;;;;14.89;61.53;95143.16;5123046;27;20512;-78
2022/09/08 04:33:37;;;;;;;6.90;4.43;;;;;;;14.91;61.62;95140.41;5108205;27;20422;-78
2022/09/08 04:36:12;;;;;;;4.90;4.40;;;;;;;14.94;61.27;95147.97;5131286;27;20080;-77
2022/09/08 04:38:38;;;;;;;6.07;4.47;;;;;;;14.89;61.53;95143.16;5114195;27;20024;-78
2022/09/08 04:41:04;;;;;;;5.28;4.35;;;;;;;14.93;61.31;95147.13;5114028;27;20272;-78
2022/09/08 04:43:31;;;;;;;6.28;4.57;;;;;;;14.91;61.52;95136.00;5130776;27;20071;-77
2022/09/08 04:46:01;;;;;;;4.95;4.20;;;;;;;14.96;61.26;95143.41;5112100;27;20056;-77
2022/09/08 04:48:26;;;;;;;5.05;4.50;;;;;;;14.99;61.21;95130.03;5130307;27;20031;-77
2022/09/08 04:50:52;;;;;;;7.32;4.90;;;;;;;15.01;61.09;95133.31;5112092;27;20027;-77
2022/09/08 04:53:18;;;;;;;6.30;4.88;;;;;;;15.08;61.13;95128.31;5123416;27;20099;-77
2022/09/08 04:55:43;;;;;;;4.95;4.10;;;;;;;15.42;60.13;95141.59;5121597;27;20027;-77
2022/09/08 04:58:09;;;;;;;4.50;4.10;;;;;;;16.73;56.31;95132.09;5132348;27;20023;-77
2022/09/08 05:00:34;;;;;;;4.80;4.30;;;;;;;17.72;53.49;95135.81;5131953;27;20491;-77
2022/09/08 05:03:00;;;;;;;4.28;3.55;;;;;;;18.73;50.55;95138.88;5132575;27;20468;-77
2022/09/08 05:05:25;;;;;;;4.28;3.88;;;;;;;19.75;48.04;95141.56;5115592;27;20030;-77
2022/09/08 05:07:51;;;;;;;5.78;3.72;;;;;;;20.61;45.92;95136.06;5115281;27;20046;-77
2022/09/08 05:10:16;;;;;;;4.30;3.90;;;;;;;21.46;43.45;95134.75;5131240;27;20027;-77
2022/09/08 05:12:41;;;;;;;5.57;3.97;;;;;;;22.09;42.00;95131.31;5130005;27;20552;-77
2022/09/08 05:15:07;;;;;;;5.78;3.38;;;;;;;22.60;40.77;95132.13;5130328;27;20386;-78
2022/09/08 05:17:33;;;;;;;3.78;3.20;;;;;;;23.12;39.59;95129.00;5131828;27;20160;-78
2022/09/08 05:19:58;;;;;;;3.90;3.28;;;;;;;23.16;38.79;95111.66;5131308;27;20023;-78
2022/09/08 05:22:24;;;;;;;5.97;3.20;;;;;;;23.41;38.54;95129.69;5130263;27;20046;-78
2022/09/08 05:24:50;;;;;;;5.47;3.20;;;;;;;23.09;38.82;95142.59;5113758;27;20023;-78
2022/09/08 05:27:15;;;;;;;4.53;3.42;;;;;;;22.32;40.83;95153.28;5132134;27;20039;-77
2022/09/08 05:29:41;;;;;;;3.72;3.28;;;;;;;21.70;42.35;95152.88;5133398;27;20027;-77
2022/09/08 05:32:06;;;;;;;5.43;3.60;;;;;;;21.27;43.16;95150.13;5133230;27;20030;-77
2022/09/08 05:34:32;;;;;;;5.97;3.63;;;;;;;21.10;43.83;95154.00;5097871;27;20039;-77
2022/09/08 05:36:57;;;;;;;4.65;3.80;;;;;;;20.88;44.53;95153.91;5097733;27;20046;-77
2022/09/08 05:39:23;;;;;;;4.53;4.03;;;;;;;20.72;44.64;95159.38;5097621;27;20100;-77
2022/09/08 05:41:48;;;;;;;6.35;4.07;;;;;;;20.62;45.29;95157.00;5097952;27;20019;-77
2022/09/08 05:44:14;;;;;;;6.43;4.00;;;;;;;20.12;46.50;95158.41;5114565;27;20047;-77
2022/09/08 05:46:39;;;;;;;5.38;3.95;;;;;;;20.07;46.87;95166.03;5131945;27;20400;-77
2022/09/08 05:49:05;;;;;;;6.90;4.07;;;;;;;20.11;47.46;95161.22;5097525;27;20035;-77
2022/09/08 05:51:32;;;;;;;4.82;3.90;;;;;;;19.95;47.99;95156.91;5114634;27;20035;-77
2022/09/08 05:54:01;;;;;;;5.70;4.20;;;;;;;19.87;48.01;95152.50;5114713;27;20039;-77
2022/09/08 05:56:27;;;;;;;5.18;4.07;;;;;;;19.76;48.09;95153.75;5098487;27;20406;-78
2022/09/08 05:58:53;;;;;;;4.80;4.07;;;;;;;19.92;47.86;95158.09;5097384;27;20124;-77
2022/09/08 06:01:19;;;;;;;5.30;4.50;;;;;;;19.96;48.34;95156.72;5133063;27;20027;-77
2022/09/08 06:03:44;;;;;;;8.07;4.05;;;;;;;19.93;48.12;95149.16;5131439;27;20038;-77
2022/09/08 06:06:10;;;;;;;4.82;4.20;;;;;;;19.93;48.06;95149.16;5114314;27;20054;-77
2022/09/08 06:08:38;;;;;;;5.85;4.13;;;;;;;20.01;48.30;95141.19;5114211;28;20038;-77
2022/09/08 06:11:03;;;;;;;5.38;4.05;;;;;;;20.06;47.84;95149.41;5097351;27;20492;-77
2022/09/08 06:13:30;;;;;;;6.40;4.10;;;;;;;20.07;48.05;95147.56;5131213;27;20122;-77
2022/09/08 06:16:01;;;;;;;5.88;4.47;;;;;;;20.21;47.68;95159.97;5132702;27;20019;-77
2022/09/08 06:18:26;;;;;;;5.80;4.18;;;;;;;20.31;47.22;95170.31;5132467;27;20031;-77
2022/09/08 06:20:52;;;;;;;8.25;4.55;;;;;;;19.70;48.48;95159.72;5132633;27;20023;-77
2022/09/08 06:23:17;;;;;;;8.00;4.72;;;;;;;19.77;48.65;95165.09;5113490;28;20032;-77
2022/09/08 06:25:44;;;;;;;9.30;4.80;;;;;;;19.92;47.98;95160.72;5132218;27;20028;-77
2022/09/08 06:28:29;;;;;;;8.40;4.45;;;;;;;19.99;48.23;95168.72;5130925;27;20084;-77
2022/09/08 06:30:55;;;;;;;9.55;5.75;;;;;;;20.05;47.56;95170.66;5130914;27;20024;-77
2022/09/08 06:33:31;;;;;;;9.85;4.60;;;;;;;20.24;47.46;95174.63;5096720;27;20073;-77
2022/09/08 06:36:23;;;;;;;8.10;4.40;;;;;;;20.29;46.75;95170.47;5114355;27;20019;-77
2022/09/08 06:38:56;;;;;;;5.97;4.10;;;;;;;20.43;46.56;95166.22;5126173;27;20054;-77
2022/09/08 06:41:29;;;;;;;6.43;4.20;;;;;;;20.57;45.83;95161.19;5114861;27;20186;-77
2022/09/08 06:44:05;;;;;;;5.70;3.78;;;;;;;20.62;45.62;95169.38;5113864;27;20047;-77
2022/09/08 06:46:36;;;;;;;6.75;3.92;;;;;;;20.68;45.49;95169.47;5130689;27;20066;-77
2022/09/08 06:49:01;;;;;;;7.03;4.07;;;;;;;20.48;45.67;95174.41;5130692;27;20034;-77
2022/09/08 06:51:33;;;;;;;8.32;4.00;;;;;;;20.70;45.58;95185.13;5113781;27;20096;-77
2022/09/08 06:54:13;;;;;;;6.13;3.88;;;;;;;20.78;44.44;95192.94;5131837;27;20031;-77
2022/09/08 06:56:42;;;;;;;;;;;;;;;20.86;44.80;95190.22;5131345;27;20030;-77
2022/09/08 06:59:48;;;;;;;5.78;4.25;;;;;;;20.89;44.80;95195.13;5131767;27;19915;-77
2022/09/08 07:02:19;;;;;;;7.40;3.97;;;;;;;20.79;44.04;95183.22;5097167;27;20051;-77
2022/09/08 07:04:57;;;;;;;9.20;4.00;;;;;;;20.94;44.24;95190.13;5130560;28;20023;-77
2022/09/08 07:07:37;;;;;;;6.50;3.88;;;;;;;21.05;43.15;95185.41;5130571;28;20043;-77
2022/09/08 07:10:07;;;;;;;4.90;3.87;;;;;;;21.22;43.72;95193.97;5130838;28;20034;-77
2022/09/08 07:12:32;;;;;;;6.95;3.95;;;;;;;21.36;42.81;95198.41;5130458;28;20031;-77
2022/09/08 07:15:18;;;;;;;8.75;3.97;;;;;;;21.44;42.62;95200.16;5131743;27;20080;-77
2022/09/08 07:17:49;;;;;;;5.50;4.30;;;;;;;21.56;43.26;95199.53;5113243;28;20031;-77
2022/09/08 07:20:15;;;;;;;;;;;;;;;21.58;43.55;95196.69;5131056;28;20069;-77
2022/09/08 07:22:43;;;;;;;4.82;4.32;;;;;;;21.53;42.70;95205.16;5131578;27;20428;-77
2022/09/08 07:25:17;;;;;;;5.53;4.53;;;;;;;21.48;44.00;95201.41;5131632;27;20035;-77
2022/09/08 07:27:43;;;;;;;8.10;5.18;;;;;;;21.62;44.70;95200.59;5131450;27;20389;-77
2022/09/08 07:30:14;;;;;;;9.27;5.53;;;;;;;21.80;44.27;95193.06;5113198;28;20161;-77
2022/09/08 07:32:39;;;;;;;;;;;;;;;21.79;44.41;95191.44;5130135;28;20034;-77
2022/09/08 07:35:10;;;;;;;9.18;5.55;;;;;;;21.89;44.63;95187.66;5129569;27;19915;-77
2022/09/08 07:37:38;;;;;;;;;;;;;;;22.05;44.38;95187.41;5118418;27;20106;-77
2022/09/08 07:40:05;;;;;;;7.60;4.80;;;;;;;22.17;43.56;95179.78;5134236;27;19919;-77
2022/09/08 07:42:31;;;;;;;18.95;6.80;;;;;;;22.23;43.96;95187.81;5134237;27;20171;-78
2022/09/08 07:45:09;;;;;;;8.95;5.20;;;;;;;22.31;43.72;95181.56;5117141;27;20122;-77
2022/09/08 07:47:42;;;;;;;5.88;4.80;;;;;;;22.48;43.29;95187.41;5100287;27;20031;-77
2022/09/08 07:53:35;;;;;;;7.28;5.07;;;;;;;22.74;42.50;95195.56;5135151;27;20042;-77
2022/09/08 07:56:10;;;;;;;9.95;4.75;;;;;;;22.91;42.48;95182.84;5135436;27;20112;-78
2022/09/08 07:58:47;;;;;;;8.60;4.93;;;;;;;23.08;42.60;95188.66;5117417;27;20035;-77
2022/09/08 08:01:30;;;;;;;9.70;4.88;;;;;;;23.15;41.35;95189.53;5116889;27;20423;-77
2022/09/08 08:04:21;;;;;;;6.45;5.22;;;;;;;23.12;40.94;95178.47;5118073;27;20160;-77
2022/09/08 08:06:54;;;;;;;8.20;5.18;;;;;;;23.02;41.73;95175.38;5128127;27;20050;-77
2022/09/08 08:09:46;;;;;;;8.95;5.32;;;;;;;22.99;41.47;95179.25;5116392;27;20077;-77
2022/09/08 08:12:20;;;;;;;10.55;5.57;;;;;;;22.99;41.79;95179.25;5130140;27;20054;-77
2022/09/08 08:14:56;;;;;;;7.63;5.32;;;;;;;22.88;42.16;95179.75;5134829;27;20023;-77
2022/09/08 08:17:40;;;;;;;11.13;5.85;;;;;;;22.57;42.48;95178.31;5116451;27;20076;-77
2022/09/08 08:20:28;;;;;;;7.97;5.45;;;;;;;22.42;43.34;95186.34;5133577;27;20035;-77
2022/09/08 08:23:12;;;;;;;6.18;5.03;;;;;;;22.39;43.51;95184.06;5123573;27;20051;-77
2022/09/08 08:25:51;;;;;;;8.10;5.57;;;;;;;22.55;43.81;95182.19;5134861;27;20034;-77
2022/09/08 08:28:18;;;;;;;9.98;5.90;;;;;;;22.46;43.26;95174.38;5134539;27;20102;-77
2022/09/08 08:30:51;;;;;;;8.57;6.07;;;;;;;22.45;43.23;95174.56;5099396;27;20088;-77
2022/09/08 08:33:21;;;;;;;7.85;5.63;;;;;;;22.41;43.49;95168.84;5133220;27;20564;-77
2022/09/08 08:35:52;;;;;;;7.72;5.47;;;;;;;22.59;43.60;95171.00;5116668;27;20031;-77
2022/09/08 08:38:25;;;;;;;7.55;5.40;;;;;;;22.66;42.93;95174.50;5133073;27;20031;-77
2022/09/08 08:40:57;;;;;;;8.23;5.65;;;;;;;22.57;42.79;95170.38;5116748;27;20125;-77
2022/09/08 08:43:41;;;;;;;9.00;5.72;;;;;;;22.67;43.09;95165.56;5115654;27;20039;-77
2022/09/08 08:46:38;;;;;;;9.75;5.78;;;;;;;22.75;43.02;95162.75;5134223;27;20027;-77
2022/09/08 08:49:25;;;;;;;9.30;5.70;;;;;;;22.83;42.09;95151.19;5131335;27;20080;-77
2022/09/08 08:52:00;;;;;;;8.30;5.40;;;;;;;22.82;41.75;95157.53;5134601;27;20436;-77
2022/09/08 08:54:49;;;;;;;6.35;5.25;;;;;;;22.89;42.32;95145.13;5134289;27;20027;-77
2022/09/08 08:57:33;;;;;;;8.98;5.78;;;;;;;22.91;41.64;95147.59;5132742;27;20043;-77
2022/09/08 09:00:19;;;;;;;11.45;5.53;;;;;;;22.91;41.78;95142.28;5133942;27;20066;-77
2022/09/08 09:03:23;;;;;;;7.70;5.55;;;;;;;23.02;41.57;95125.06;5117752;27;20027;-77
2022/09/08 09:06:06;;;;;;;8.95;6.00;;;;;;;23.25;41.40;95130.03;5127629;27;20079;-77
2022/09/08 09:08:57;;;;;;;8.45;5.40;;;;;;;23.35;40.98;95117.25;5132505;27;20456;-77
2022/09/08 09:11:29;;;;;;;9.40;5.50;;;;;;;23.52;41.91;95112.41;5115481;27;20412;-77
2022/09/08 09:14:22;;;;;;;12.60;5.18;;;;;;;23.62;40.50;95112.81;5132324;27;20058;-77
2022/09/08 09:17:03;;;;;;;9.43;5.60;;;;;;;23.51;39.18;95102.81;5132887;27;20031;-78
2022/09/08 09:20:11;;;;;;;9.02;5.43;;;;;;;23.64;39.80;95093.03;5132249;27;20027;-77
2022/09/08 09:22:43;;;;;;;7.72;5.45;;;;;;;23.85;39.76;95094.75;5113501;27;20063;-77
2022/09/08 09:25:36;;;;;;;10.15;5.22;;;;;;;24.00;39.51;95089.25;5132303;27;20104;-77
2022/09/08 09:28:29;;;;;;;8.80;4.97;;;;;;;24.20;40.05;95089.25;5112531;27;20039;-77
2022/09/08 09:31:20;;;;;;;8.10;5.30;;;;;;;24.31;39.04;95077.19;5114751;27;20042;-77
2022/09/08 09:34:08;;;;;;;9.10;5.60;;;;;;;24.45;38.52;95081.50;5131775;27;20103;-77
2022/09/08 09:37:09;;;;;;;11.55;6.32;;;;;;;24.38;37.79;95072.69;5132230;27;20060;-77
2022/09/08 09:39:54;;;;;;;8.95;5.68;;;;;;;24.26;39.30;95072.50;5097919;27;20527;-77
2022/09/08 09:42:42;;;;;;;6.88;5.55;;;;;;;24.43;39.17;95075.59;5132044;27;20042;-77
2022/09/08 09:45:30;;;;;;;7.07;5.43;;;;;;;24.55;38.36;95078.44;5131959;27;20043;-77
2022/09/08 09:48:14;;;;;;;8.25;5.43;;;;;;;24.64;38.29;95071.88;5111929;27;20456;-77
2022/09/08 09:50:48;;;;;;;11.80;5.78;;;;;;;24.69;37.19;95064.09;5131638;27;20560;-77
2022/09/08 09:54:00;;;;;;;10.55;6.00;;;;;;;24.83;37.78;95062.22;5131572;27;20091;-77
2022/09/08 09:56:32;;;;;;;9.52;5.80;;;;;;;24.95;37.55;95052.56;5116632;27;20039;-77
2022/09/08 09:59:25;;;;;;;10.02;5.63;;;;;;;25.04;37.63;95039.03;5131417;27;20114;-77
2022/09/08 10:02:08;;;;;;;8.38;5.03;;;;;;;25.10;36.64;95043.50;5133261;27;20035;-77
2022/09/08 10:04:42;;;;;;;6.63;5.15;;;;;;;25.00;36.44;95036.00;5131408;27;20030;-77
2022/09/08 10:07:28;;;;;;;7.10;5.30;;;;;;;25.10;36.30;95032.88;5132757;27;20466;-77
2022/09/08 10:10:03;;;;;;;10.60;5.03;;;;;;;25.15;36.87;95023.25;5114216;27;20046;-77
2022/09/08 10:12:34;;;;;;;5.90;4.82;;;;;;;25.27;37.28;95027.91;5131160;27;20027;-77
2022/09/08 10:15:33;;;;;;;6.93;5.15;;;;;;;25.29;35.64;95013.38;5132503;27;20160;-77
2022/09/08 10:18:05;;;;;;;11.05;4.97;;;;;;;25.31;35.39;95008.66;5132440;27;20023;-77
2022/09/08 10:21:27;;;;;;;5.60;4.63;;;;;;;25.29;35.59;94994.75;5132386;27;20041;-77
2022/09/08 10:23:53;;;;;;;9.75;5.00;;;;;;;25.43;36.63;95011.44;5072122;28;20032;-77
2022/09/08 10:26:50;;;;;;;7.18;4.95;;;;;;;25.47;36.18;94999.38;5089085;28;20097;-77
2022/09/08 10:29:22;;;;;;;5.93;4.68;;;;;;;25.53;36.64;95003.00;5111145;27;20066;-77
2022/09/08 10:32:09;;;;;;;6.82;4.32;;;;;;;25.59;35.03;94996.81;5132684;27;20038;-77
2022/09/08 10:35:11;;;;;;;5.18;4.60;;;;;;;25.58;35.62;94990.69;5132088;27;20023;-77
2022/09/08 10:37:46;;;;;;;5.80;4.72;;;;;;;25.63;36.16;94977.56;5130847;27;20520;-77
2022/09/08 10:40:34;;;;;;;5.93;4.25;;;;;;;25.63;36.05;94974.06;5130855;27;20038;-77
2022/09/08 10:43:08;;;;;;;5.68;4.57;;;;;;;25.67;36.04;94963.84;5130524;27;20019;-77
2022/09/08 10:45:38;;;;;;;5.88;4.32;;;;;;;25.80;36.42;94963.72;5130930;27;20050;-77
2022/09/08 10:48:06;;;;;;;6.80;4.50;;;;;;;25.87;36.32;94969.81;5131941;27;20030;-77
2022/09/08 10:50:32;;;;;;;5.65;4.50;;;;;;;25.92;36.49;94972.66;5131900;27;20034;-77
2022/09/08 10:52:59;;;;;;;5.40;4.15;;;;;;;25.97;36.34;94975.47;5131837;27;20034;-77
2022/09/08 10:55:51;;;;;;;7.50;4.40;;;;;;;26.01;36.13;94970.50;5132449;27;20036;-77
2022/09/08 10:58:25;;;;;;;7.97;4.60;;;;;;;25.99;36.47;94961.94;5129547;27;20046;-77
2022/09/08 11:01:12;;;;;;;6.68;4.80;;;;;;;26.06;36.18;94960.03;5130952;28;20114;-77
2022/09/08 11:03:46;;;;;;;7.30;4.60;;;;;;;26.14;36.40;94967.72;5131895;27;20109;-78
2022/09/08 11:06:19;;;;;;;7.55;4.70;;;;;;;26.17;36.86;94961.16;5130812;28;20027;-77
2022/09/08 11:08:59;;;;;;;6.00;4.70;;;;;;;26.21;37.60;94959.66;5131845;27;20076;-77
2022/09/08 11:11:45;;;;;;;;;;;;;;;26.22;38.12;94961.31;5135534;27;20038;-77
2022/09/08 11:14:38;;;;;;;6.05;4.85;;;;;;;26.18;37.48;94965.44;5134787;27;20308;-77
2022/09/08 11:17:08;;;;;;;6.20;4.30;;;;;;;26.25;37.08;94961.69;5135997;27;20413;-77
2022/09/08 11:19:46;;;;;;;4.55;4.15;;;;;;;26.30;36.99;94945.88;5117510;27;20023;-77
2022/09/08 11:22:33;;;;;;;6.78;4.88;;;;;;;26.37;37.23;94948.44;5117928;27;20043;-78
2022/09/08 11:25:23;;;;;;;5.95;4.60;;;;;;;26.42;37.01;94950.44;5117971;27;20039;-77
2022/09/08 11:28:25;;;;;;;6.18;4.60;;;;;;;26.42;37.69;94939.78;5135842;27;20029;-77
2022/09/08 11:30:53;;;;;;;6.00;4.43;;;;;;;26.50;37.40;94935.00;5134664;27;20119;-77
2022/09/08 11:33:33;;;;;;;5.47;4.38;;;;;;;26.56;37.35;94945.81;5134442;27;20109;-78
2022/09/08 11:36:08;;;;;;;6.95;4.68;;;;;;;26.69;37.28;94949.13;5135926;27;20031;-77
2022/09/08 11:38:53;;;;;;;8.68;4.53;;;;;;;26.73;37.31;94947.63;5135595;27;20031;-77
2022/09/08 11:41:24;;;;;;;7.88;4.40;;;;;;;26.69;36.67;94945.63;5135428;27;20027;-78
2022/09/08 11:44:20;;;;;;;7.65;4.57;;;;;;;26.70;37.64;94958.75;5135205;27;20528;-78
2022/09/08 11:47:20;;;;;;;6.05;4.60;;;;;;;26.71;36.86;94947.03;5134573;27;20034;-78
2022/09/08 11:50:10;;;;;;;8.55;4.88;;;;;;;26.73;37.27;94955.63;5134130;27;20035;-78
2022/09/08 11:52:50;;;;;;;5.50;4.70;;;;;;;26.81;37.36;94953.69;5134044;27;20519;-78
2022/09/08 11:56:01;;;;;;;7.30;5.10;;;;;;;26.86;37.65;94956.50;5135157;27;20293;-78
2022/09/08 11:58:30;;;;;;;;;;;;;;;26.83;37.43;94946.28;5135712;27;20054;-78
2022/09/08 12:00:56;;;;;;;5.88;4.53;;;;;;;26.86;36.89;94951.19;5134160;27;20316;-78
2022/09/08 12:03:53;;;;;;;15.02;4.78;;;;;;;26.87;37.17;94947.47;5135287;27;20023;-78
2022/09/08 12:06:37;;;;;;;5.30;4.80;;;;;;;26.83;36.46;94936.47;5130876;27;20043;-78
2022/09/08 12:09:03;;;;;;;5.25;4.57;;;;;;;26.93;37.11;94941.22;5116462;27;20027;-78
2022/09/08 12:11:47;;;;;;;6.53;4.47;;;;;;;26.93;37.04;94935.91;5135273;27;20039;-78
2022/09/08 12:14:20;;;;;;;5.38;4.88;;;;;;;26.95;37.25;94936.50;5133543;27;20023;-78
2022/09/08 12:17:18;;;;;;;5.88;4.57;;;;;;;26.92;37.06;94934.28;5133593;27;20046;-78
2022/09/08 12:20:00;;;;;;;5.32;4.72;;;;;;;27.16;37.10;94944.03;5132482;27;20043;-77